Time;durP1;ratioP1;P1;durP2;ratioP2;P2;SDS_P1;SDS_P2;PMS_P1;PMS_P2;Temp;Humidity;BMP_temperature;BMP_pressure;BME280_temperature;BME280_humidity;BME280_pressure;Samples;Min_cycle;Max_cycle;Signal;HPM_P1;HPM_P2
2022/10/16 00:01:56;;;;;;;10.07;4.63;;;;;;;11.20;99.39;100914.09;5090924;28;20036;-78
2022/10/16 00:04:22;;;;;;;7.70;4.35;;;;;;;11.20;100.00;100915.94;5074189;28;20250;-76
2022/10/16 00:06:47;;;;;;;7.82;3.90;;;;;;;11.18;99.67;100905.16;5092346;28;20032;-77
2022/10/16 00:09:13;;;;;;;7.53;4.38;;;;;;;11.15;100.00;100905.41;5090986;28;20134;-76
2022/10/16 00:11:39;;;;;;;9.63;6.60;;;;;;;11.18;100.00;100904.28;5090498;28;20048;-75
2022/10/16 00:14:09;;;;;;;7.95;4.85;;;;;;;11.18;100.00;100904.28;5092460;28;20032;-76
2022/10/16 00:16:35;;;;;;;8.13;4.20;;;;;;;11.15;100.00;100904.53;5103444;28;20444;-76
2022/10/16 00:19:00;;;;;;;9.20;3.97;;;;;;;11.16;100.00;100912.56;5074494;28;20112;-75
2022/10/16 00:21:28;;;;;;;6.13;4.32;;;;;;;11.15;99.84;100919.00;5074206;28;20036;-76
2022/10/16 00:23:59;;;;;;;7.40;4.25;;;;;;;11.18;100.00;100913.31;5092232;28;20186;-76
2022/10/16 00:26:26;;;;;;;5.85;4.38;;;;;;;11.14;100.00;100911.81;5090726;28;20081;-76
2022/10/16 00:28:52;;;;;;;7.25;4.50;;;;;;;11.12;100.00;100908.34;5092632;28;20035;-76
2022/10/16 00:31:19;;;;;;;7.28;4.60;;;;;;;11.10;100.00;100913.03;5090350;28;20028;-75
2022/10/16 00:33:45;;;;;;;7.50;4.38;;;;;;;11.07;100.00;100912.38;5090451;28;20395;-76
2022/10/16 00:36:12;;;;;;;9.02;4.13;;;;;;;11.05;100.00;100908.88;5091822;28;20043;-76
2022/10/16 00:38:39;;;;;;;7.97;4.30;;;;;;;11.05;100.00;100911.63;5102985;28;20031;-76
2022/10/16 00:41:11;;;;;;;8.02;4.07;;;;;;;11.00;100.00;100909.22;5082999;28;20046;-76
2022/10/16 00:43:55;;;;;;;8.15;4.65;;;;;;;10.98;100.00;100912.06;5091524;28;20383;-76
2022/10/16 00:46:40;;;;;;;9.20;4.15;;;;;;;10.94;100.00;100912.41;5090366;28;20792;-76
2022/10/16 00:49:12;;;;;;;10.07;4.43;;;;;;;10.91;100.00;100916.25;5091641;28;20069;-76
2022/10/16 00:51:40;;;;;;;7.00;4.00;;;;;;;10.93;100.00;100913.41;5091483;28;20039;-76
2022/10/16 00:54:27;;;;;;;7.47;3.88;;;;;;;10.92;100.00;100917.97;5091597;28;20458;-76
2022/10/16 00:56:54;;;;;;;6.55;4.03;;;;;;;10.89;100.00;100918.19;5090029;28;20409;-76
2022/10/16 00:59:27;;;;;;;6.68;4.15;;;;;;;10.90;100.00;100919.91;5100874;28;20108;-76
2022/10/16 01:01:54;;;;;;;7.63;4.10;;;;;;;10.90;100.00;100913.59;5089736;28;20131;-75
2022/10/16 01:04:20;;;;;;;9.63;4.18;;;;;;;10.87;100.00;100906.56;5089972;28;20111;-76
2022/10/16 01:06:56;;;;;;;7.05;3.80;;;;;;;10.90;100.00;100906.31;5102806;28;20131;-76
2022/10/16 01:09:37;;;;;;;4.03;3.47;;;;;;;10.85;100.00;100905.78;5091069;28;20048;-76
2022/10/16 01:12:29;;;;;;;8.20;3.97;;;;;;;10.84;100.00;100895.00;5072510;28;20035;-76
2022/10/16 01:15:07;;;;;;;7.78;3.63;;;;;;;10.81;100.00;100912.41;5091347;28;20107;-76
2022/10/16 01:17:48;;;;;;;6.78;4.15;;;;;;;10.79;100.00;100913.53;5089690;28;20394;-76
2022/10/16 01:20:42;;;;;;;5.70;3.40;;;;;;;10.77;100.00;100913.66;5089955;28;20047;-76
2022/10/16 01:23:17;;;;;;;7.40;3.75;;;;;;;10.78;100.00;100914.53;5090854;28;20044;-76
2022/10/16 01:25:56;;;;;;;7.15;4.53;;;;;;;10.75;100.00;100921.03;5089781;28;20040;-76
2022/10/16 01:28:28;;;;;;;6.57;3.65;;;;;;;10.76;100.00;100925.50;5090794;28;20043;-76
2022/10/16 01:30:59;;;;;;;5.20;3.85;;;;;;;10.75;100.00;100915.59;5091117;28;20044;-76
2022/10/16 01:33:30;;;;;;;5.70;3.50;;;;;;;10.80;100.00;100920.72;5101012;28;20425;-76
2022/10/16 01:36:02;;;;;;;5.15;3.33;;;;;;;10.84;100.00;100912.22;5089301;28;20502;-76
2022/10/16 01:38:36;;;;;;;4.70;3.45;;;;;;;10.89;100.00;100904.56;5092756;28;20036;-76
2022/10/16 01:41:09;;;;;;;5.40;3.28;;;;;;;10.92;100.00;100908.94;5107487;28;20100;-76
2022/10/16 01:43:57;;;;;;;5.28;3.15;;;;;;;10.91;100.00;100915.34;5109626;28;20039;-76
2022/10/16 01:46:24;;;;;;;6.45;3.35;;;;;;;10.91;100.00;100926.22;5073812;28;20066;-76
2022/10/16 01:48:52;;;;;;;4.00;3.10;;;;;;;10.91;100.00;100916.25;5090057;28;20098;-76
2022/10/16 01:51:19;;;;;;;7.18;3.65;;;;;;;10.96;100.00;100905.03;5097832;28;20067;-76
2022/10/16 01:53:49;;;;;;;4.40;3.03;;;;;;;11.02;100.00;100911.84;5092837;28;20024;-76
2022/10/16 01:56:17;;;;;;;5.68;3.05;;;;;;;11.02;100.00;100910.00;5098554;28;20039;-76
2022/10/16 01:58:47;;;;;;;7.68;3.60;;;;;;;11.01;100.00;100907.41;5091269;28;20043;-77
2022/10/16 02:01:17;;;;;;;5.55;3.25;;;;;;;10.98;100.00;100901.19;5104386;28;20111;-76
2022/10/16 02:03:46;;;;;;;4.10;2.75;;;;;;;10.99;100.00;100918.38;5101508;28;20078;-75
2022/10/16 02:06:12;;;;;;;7.10;3.13;;;;;;;11.05;100.00;100920.69;5110691;28;20099;-76
2022/10/16 02:08:40;;;;;;;4.50;2.95;;;;;;;11.09;100.00;100924.03;5110268;28;20597;-76
2022/10/16 02:11:06;;;;;;;4.90;2.78;;;;;;;11.09;100.00;100929.47;5092574;28;20040;-75
2022/10/16 02:13:45;;;;;;;6.05;3.28;;;;;;;11.07;100.00;100924.16;5088884;28;20076;-76
2022/10/16 02:16:12;;;;;;;6.90;2.95;;;;;;;11.08;100.00;100917.72;5089945;28;20464;-75
2022/10/16 02:18:38;;;;;;;4.60;2.97;;;;;;;11.10;100.00;100918.50;5088542;28;20131;-76
2022/10/16 02:21:16;;;;;;;4.32;2.40;;;;;;;11.11;100.00;100919.34;5092929;28;20425;-76
2022/10/16 02:24:08;;;;;;;6.05;2.90;;;;;;;11.10;100.00;100918.50;5090129;28;20055;-76
2022/10/16 02:26:48;;;;;;;3.75;2.30;;;;;;;11.07;100.00;100918.69;5088538;28;20440;-76
2022/10/16 02:29:18;;;;;;;6.10;2.50;;;;;;;11.06;100.00;100910.66;5088384;28;20097;-75
2022/10/16 02:31:47;;;;;;;5.63;2.70;;;;;;;11.04;100.00;100909.88;5106155;28;20104;-77
2022/10/16 02:34:15;;;;;;;3.85;2.75;;;;;;;11.00;100.00;100911.94;5101116;28;20070;-76
2022/10/16 02:36:42;;;;;;;7.10;2.95;;;;;;;10.99;100.00;100919.25;5109933;28;20098;-75
2022/10/16 02:39:09;;;;;;;7.28;3.10;;;;;;;10.97;100.00;100917.63;5109938;27;20050;-77
2022/10/16 02:41:34;;;;;;;4.53;2.40;;;;;;;10.93;100.00;100927.00;5105366;28;20047;-76
2022/10/16 02:43:59;;;;;;;4.78;2.83;;;;;;;10.88;100.00;100926.47;5091816;28;20347;-77
2022/10/16 02:46:25;;;;;;;5.60;2.80;;;;;;;10.88;100.00;100931.91;5078640;28;20174;-76
2022/10/16 02:48:50;;;;;;;6.25;2.55;;;;;;;10.86;100.00;100932.00;5090061;28;20020;-76
2022/10/16 02:51:16;;;;;;;5.22;2.42;;;;;;;10.83;100.00;100921.38;5087832;28;20036;-76
2022/10/16 02:53:41;;;;;;;3.33;2.28;;;;;;;10.83;100.00;100929.53;5089482;28;20028;-76
2022/10/16 02:56:06;;;;;;;6.60;2.47;;;;;;;10.78;100.00;100919.97;5087733;28;20043;-77
2022/10/16 02:58:32;;;;;;;9.65;3.15;;;;;;;10.77;100.00;100913.66;5088753;28;20031;-75
2022/10/16 03:00:57;;;;;;;4.80;2.40;;;;;;;10.74;100.00;100911.13;5095489;28;20032;-76
2022/10/16 03:03:22;;;;;;;6.72;2.83;;;;;;;10.73;100.00;100915.72;5100604;28;20059;-76
2022/10/16 03:05:48;;;;;;;4.30;2.42;;;;;;;10.68;100.00;100917.03;5108252;28;20077;-76
2022/10/16 03:08:13;;;;;;;5.72;2.72;;;;;;;10.67;100.00;100923.44;5109339;28;20043;-76
2022/10/16 03:10:39;;;;;;;4.07;2.38;;;;;;;10.65;100.00;100923.56;5097213;28;20038;-76
2022/10/16 03:13:04;;;;;;;5.45;2.33;;;;;;;10.66;100.00;100928.00;5094409;28;20534;-76
2022/10/16 03:15:30;;;;;;;3.50;2.42;;;;;;;10.62;100.00;100921.03;5089265;28;20031;-77
2022/10/16 03:17:58;;;;;;;4.95;2.45;;;;;;;10.65;100.00;100930.84;5070527;28;20111;-76
2022/10/16 03:20:24;;;;;;;5.18;2.53;;;;;;;10.66;100.00;100935.31;5091550;28;20486;-76
2022/10/16 03:22:49;;;;;;;5.32;2.33;;;;;;;10.68;100.00;100942.38;5108950;28;20108;-76
2022/10/16 03:25:14;;;;;;;6.05;2.45;;;;;;;10.70;100.00;100943.13;5108084;28;20433;-77
2022/10/16 03:27:40;;;;;;;9.02;2.40;;;;;;;10.66;100.00;100940.75;5109001;28;20023;-77
2022/10/16 03:30:06;;;;;;;4.97;2.35;;;;;;;10.66;100.00;100952.50;5087993;28;20024;-76
2022/10/16 03:32:31;;;;;;;4.68;2.40;;;;;;;10.64;100.00;100959.91;5086308;28;20093;-76
2022/10/16 03:34:56;;;;;;;4.70;2.17;;;;;;;10.67;100.00;100956.94;5090310;28;20035;-76
2022/10/16 03:37:22;;;;;;;2.53;1.63;;;;;;;10.70;100.00;100964.03;5097460;28;20582;-76
2022/10/16 03:39:47;;;;;;;3.50;2.10;;;;;;;10.67;100.00;100954.22;5095794;28;20032;-76
2022/10/16 03:42:13;;;;;;;4.57;2.40;;;;;;;10.70;100.00;100953.16;5087207;28;20071;-76
2022/10/16 03:44:38;;;;;;;6.70;2.20;;;;;;;10.70;100.00;100959.47;5088504;28;20036;-76
2022/10/16 03:47:03;;;;;;;4.68;2.35;;;;;;;10.70;100.00;100958.59;5088349;28;20028;-76
2022/10/16 03:49:29;;;;;;;4.68;2.20;;;;;;;10.70;100.00;100951.31;5102039;28;20036;-76
2022/10/16 03:51:54;;;;;;;2.17;1.95;;;;;;;10.70;100.00;100959.47;5092848;28;20062;-76
2022/10/16 03:54:21;;;;;;;6.80;1.92;;;;;;;10.68;100.00;100966.00;5087508;28;20032;-75
2022/10/16 03:56:47;;;;;;;2.20;2.00;;;;;;;10.71;100.00;100968.50;5088351;28;20059;-76
2022/10/16 03:59:12;;;;;;;3.67;2.25;;;;;;;10.77;100.00;100972.63;5087353;28;20079;-76
2022/10/16 04:01:38;;;;;;;5.68;2.35;;;;;;;10.77;100.00;100970.81;5093320;28;20050;-76
2022/10/16 04:04:03;;;;;;;7.97;2.15;;;;;;;10.81;100.00;100976.88;5089589;28;20028;-76
2022/10/16 04:06:28;;;;;;;3.92;1.98;;;;;;;10.81;100.00;100968.72;5088794;28;20436;-76
2022/10/16 04:08:54;;;;;;;3.05;2.15;;;;;;;10.85;100.00;100967.50;5088119;28;20471;-76
2022/10/16 04:11:19;;;;;;;2.90;1.80;;;;;;;10.83;100.00;100972.19;5104568;28;20470;-76
2022/10/16 04:13:44;;;;;;;4.15;2.63;;;;;;;10.85;100.00;100967.50;5108724;28;20036;-76
2022/10/16 04:16:10;;;;;;;5.47;1.98;;;;;;;10.87;100.00;100971.00;5093454;28;20385;-77
2022/10/16 04:18:35;;;;;;;3.70;2.13;;;;;;;10.90;100.00;100974.34;5070200;28;20035;-77
2022/10/16 04:21:05;;;;;;;3.38;2.30;;;;;;;10.92;100.00;100979.72;5099007;28;20031;-74
2022/10/16 04:23:31;;;;;;;4.60;2.45;;;;;;;10.91;100.00;100983.38;5108933;28;20046;-76
2022/10/16 04:25:56;;;;;;;4.13;2.38;;;;;;;10.89;100.00;100980.78;5100882;28;20032;-75
2022/10/16 04:28:21;;;;;;;4.53;2.13;;;;;;;10.89;100.00;100986.22;5092613;28;20526;-76
2022/10/16 04:30:47;;;;;;;4.78;2.08;;;;;;;10.94;100.00;100983.19;5092261;28;20064;-76
2022/10/16 04:33:12;;;;;;;4.68;2.45;;;;;;;10.93;100.00;100978.72;5096485;28;20394;-76
2022/10/16 04:35:38;;;;;;;5.65;2.50;;;;;;;10.96;100.00;100981.25;5069926;28;20020;-75
2022/10/16 04:38:03;;;;;;;5.07;2.80;;;;;;;10.96;100.00;100990.28;5087982;28;20467;-75
2022/10/16 04:40:29;;;;;;;3.40;2.22;;;;;;;10.94;100.00;100994.94;5088280;28;20455;-77
2022/10/16 04:42:54;;;;;;;4.53;2.53;;;;;;;10.93;100.00;100995.06;5088011;28;20107;-76
2022/10/16 04:45:19;;;;;;;5.40;2.50;;;;;;;10.88;100.00;100991.78;5099051;28;20343;-76
2022/10/16 04:47:45;;;;;;;3.83;2.38;;;;;;;10.91;100.00;101006.06;5105538;28;20123;-76
2022/10/16 04:50:10;;;;;;;3.75;2.28;;;;;;;10.88;100.00;101003.56;5092564;28;20051;-75
2022/10/16 04:52:36;;;;;;;4.47;2.50;;;;;;;10.89;100.00;101005.28;5084490;28;20020;-76
2022/10/16 04:55:02;;;;;;;6.43;3.10;;;;;;;10.90;100.00;101009.75;5098243;28;20070;-75
2022/10/16 04:57:29;;;;;;;7.95;3.13;;;;;;;10.89;100.00;101002.56;5090429;28;20431;-76
2022/10/16 04:59:55;;;;;;;6.90;2.63;;;;;;;10.87;100.00;101012.72;5102882;28;20065;-76
2022/10/16 05:02:21;;;;;;;8.32;2.80;;;;;;;10.85;100.00;101020.09;5072515;28;20138;-76
2022/10/16 05:04:46;;;;;;;4.03;2.70;;;;;;;10.84;100.00;101029.25;5091346;28;20120;-75
2022/10/16 05:07:11;;;;;;;6.40;2.50;;;;;;;10.80;100.00;101027.72;5091230;28;20027;-76
2022/10/16 05:09:37;;;;;;;8.38;2.95;;;;;;;10.82;100.00;101019.44;5090032;28;20047;-77
2022/10/16 05:12:03;;;;;;;5.35;2.70;;;;;;;10.81;100.00;101032.16;5099232;28;20031;-76
2022/10/16 05:14:29;;;;;;;3.92;2.60;;;;;;;10.82;100.00;101035.75;5099963;28;20497;-76
2022/10/16 05:16:55;;;;;;;5.40;2.47;;;;;;;10.80;100.00;101035.00;5090048;28;20040;-76
2022/10/16 05:19:20;;;;;;;3.92;2.70;;;;;;;10.80;100.00;101030.44;5091151;28;20046;-75
2022/10/16 05:21:45;;;;;;;5.18;3.03;;;;;;;10.80;100.00;101030.44;5093232;28;20044;-75
2022/10/16 05:24:11;;;;;;;3.80;2.13;;;;;;;10.78;100.00;101034.25;5111533;28;20043;-76
2022/10/16 05:26:36;;;;;;;4.80;2.58;;;;;;;10.78;100.00;101026.09;5107077;28;20103;-76
2022/10/16 05:29:02;;;;;;;5.72;2.53;;;;;;;10.72;100.00;101032.81;5081333;28;20035;-76
2022/10/16 05:31:28;;;;;;;6.40;2.58;;;;;;;10.77;100.00;101041.56;5090712;28;20180;-76
2022/10/16 05:33:58;;;;;;;5.75;2.60;;;;;;;10.77;100.00;101048.81;5089605;28;20115;-76
2022/10/16 05:36:24;;;;;;;4.30;2.75;;;;;;;10.72;100.00;101058.22;5090828;28;20032;-77
2022/10/16 05:38:50;;;;;;;4.57;2.55;;;;;;;10.70;100.00;101062.88;5096508;28;20039;-76
2022/10/16 05:41:21;;;;;;;5.68;2.85;;;;;;;10.70;100.00;101062.00;5095080;28;20420;-76
2022/10/16 05:43:46;;;;;;;4.55;3.10;;;;;;;10.69;100.00;101073.88;5090566;28;20390;-76
2022/10/16 05:46:11;;;;;;;4.60;2.60;;;;;;;10.67;100.00;101079.38;5089205;28;20095;-76
2022/10/16 05:48:37;;;;;;;10.55;2.72;;;;;;;10.67;100.00;101084.84;5089140;28;20028;-76
2022/10/16 05:51:04;;;;;;;5.10;3.17;;;;;;;10.67;100.00;101089.41;5088943;28;20060;-76
2022/10/16 05:53:32;;;;;;;4.55;2.30;;;;;;;10.66;100.00;101093.97;5093337;28;20475;-76
2022/10/16 05:55:58;;;;;;;9.60;2.60;;;;;;;10.65;100.00;101102.25;5109146;28;20040;-76
2022/10/16 05:58:24;;;;;;;7.45;3.15;;;;;;;10.64;100.00;101108.69;5110583;27;20073;-77
2022/10/16 06:00:54;;;;;;;8.23;3.00;;;;;;;10.59;100.00;101108.13;5103661;28;20453;-76
2022/10/16 06:03:20;;;;;;;4.18;2.40;;;;;;;10.52;100.00;101115.81;5100251;28;20054;-77
2022/10/16 06:05:45;;;;;;;5.28;2.72;;;;;;;10.55;100.00;101112.91;5105520;28;20379;-77
2022/10/16 06:08:10;;;;;;;5.88;2.63;;;;;;;10.57;100.00;101119.09;5110414;28;20096;-76
2022/10/16 06:10:36;;;;;;;5.60;2.85;;;;;;;10.57;100.00;101120.94;5109046;28;20035;-77
2022/10/16 06:13:01;;;;;;;5.38;2.60;;;;;;;10.52;100.00;101120.38;5084964;28;20554;-77
2022/10/16 06:15:26;;;;;;;6.28;2.90;;;;;;;10.49;100.00;101132.34;5102896;28;20046;-77
2022/10/16 06:17:52;;;;;;;7.88;2.88;;;;;;;10.54;100.00;101127.50;5105832;28;20032;-77
2022/10/16 06:20:17;;;;;;;6.28;2.70;;;;;;;10.52;100.00;101140.31;5087185;28;20438;-76
2022/10/16 06:22:43;;;;;;;5.07;2.22;;;;;;;10.50;100.00;101142.25;5096073;28;20447;-76
2022/10/16 06:25:08;;;;;;;5.47;2.60;;;;;;;10.45;100.00;101149.88;5096901;28;20027;-76
2022/10/16 06:27:33;;;;;;;4.07;2.80;;;;;;;10.47;100.00;101154.22;5098144;28;20044;-76
2022/10/16 06:29:59;;;;;;;4.53;2.30;;;;;;;10.48;100.00;101147.78;5096103;28;20024;-76
2022/10/16 06:32:24;;;;;;;7.00;4.03;;;;;;;10.52;100.00;101155.75;5098259;28;20028;-76
2022/10/16 06:34:49;;;;;;;10.20;2.75;;;;;;;10.53;100.00;101160.22;5097429;28;20450;-76
2022/10/16 06:37:15;;;;;;;5.15;2.78;;;;;;;10.56;100.00;101163.59;5082162;28;20016;-76
2022/10/16 06:39:40;;;;;;;6.70;2.80;;;;;;;10.55;100.00;101170.03;5096390;28;20032;-77
2022/10/16 06:42:05;;;;;;;4.97;3.35;;;;;;;10.56;100.00;101174.50;5095029;27;20142;-77
2022/10/16 06:44:34;;;;;;;6.63;2.65;;;;;;;10.59;100.00;101173.44;5096925;28;20032;-77
2022/10/16 06:47:00;;;;;;;6.07;2.80;;;;;;;10.61;100.00;101175.06;5086897;28;20471;-77
2022/10/16 06:49:25;;;;;;;6.70;2.75;;;;;;;10.63;100.00;101172.22;5096883;28;20043;-77
2022/10/16 06:51:50;;;;;;;5.45;3.63;;;;;;;10.69;100.00;101180.84;5097809;28;20532;-77
2022/10/16 06:54:17;;;;;;;4.03;2.90;;;;;;;10.72;100.00;101187.91;5099764;28;20028;-76
2022/10/16 06:56:43;;;;;;;8.27;3.45;;;;;;;10.82;100.00;101194.50;5059502;27;20052;-77
2022/10/16 06:59:08;;;;;;;5.85;3.55;;;;;;;10.89;100.00;101189.50;5062255;28;20074;-76
2022/10/16 07:01:34;;;;;;;5.22;2.75;;;;;;;10.98;100.00;101191.59;5062363;28;20131;-77
2022/10/16 07:04:00;;;;;;;6.45;2.58;;;;;;;11.11;100.00;101197.94;5058433;28;20448;-77
2022/10/16 07:06:26;;;;;;;6.25;2.95;;;;;;;11.34;100.00;101198.22;5059411;28;20029;-76
2022/10/16 07:08:52;;;;;;;4.18;2.50;;;;;;;11.69;100.00;101203.88;5053173;28;20603;-76
2022/10/16 07:11:20;;;;;;;4.80;2.25;;;;;;;11.99;100.00;101209.03;5046589;28;20041;-76
2022/10/16 07:13:47;;;;;;;5.15;2.30;;;;;;;12.13;100.00;101216.19;5046801;28;20033;-77
2022/10/16 07:16:15;;;;;;;4.90;2.42;;;;;;;12.37;100.00;101218.97;5047278;28;20515;-77
2022/10/16 07:18:42;;;;;;;4.47;2.40;;;;;;;13.15;98.25;101213.94;5048523;28;20037;-77
2022/10/16 07:21:14;;;;;;;4.13;2.00;;;;;;;13.79;94.58;101219.81;5048816;28;20104;-76
2022/10/16 07:23:40;;;;;;;4.13;2.08;;;;;;;14.09;92.19;101229.28;5048178;28;20033;-77
2022/10/16 07:26:07;;;;;;;3.25;1.80;;;;;;;14.07;90.82;101230.38;5045156;28;20102;-77
2022/10/16 07:28:33;;;;;;;4.65;2.00;;;;;;;13.77;91.31;101240.94;5060286;28;20025;-76
2022/10/16 07:31:13;;;;;;;5.40;1.75;;;;;;;13.67;92.89;101255.47;5047066;28;20041;-76
2022/10/16 07:33:41;;;;;;;4.03;2.15;;;;;;;13.46;92.49;101255.28;5060286;28;20114;-76
2022/10/16 07:36:07;;;;;;;2.90;1.75;;;;;;;13.31;93.23;101256.47;5058445;28;20068;-77
2022/10/16 07:38:33;;;;;;;4.00;2.42;;;;;;;13.19;94.03;101250.06;5058406;28;20035;-76
2022/10/16 07:41:04;;;;;;;3.45;2.00;;;;;;;13.12;94.99;101251.53;5065551;28;20048;-77
2022/10/16 07:43:30;;;;;;;3.60;2.20;;;;;;;13.06;95.32;101255.63;5053114;28;20496;-75
2022/10/16 07:45:56;;;;;;;4.10;1.85;;;;;;;12.99;95.78;101257.06;5047776;28;20045;-76
2022/10/16 07:48:23;;;;;;;4.78;2.13;;;;;;;13.00;96.47;101273.31;5054932;28;20032;-76
2022/10/16 07:50:48;;;;;;;8.95;2.72;;;;;;;13.00;96.67;101266.97;5046413;28;20059;-78
2022/10/16 07:53:14;;;;;;;3.60;2.40;;;;;;;13.06;96.59;101268.41;5059848;28;20037;-76
2022/10/16 07:55:40;;;;;;;4.55;2.50;;;;;;;13.11;96.77;101286.19;5057299;28;20459;-77
2022/10/16 07:58:06;;;;;;;4.75;2.40;;;;;;;13.11;95.97;101283.44;5059423;28;20045;-76
2022/10/16 08:00:32;;;;;;;7.18;2.63;;;;;;;13.09;95.97;101279.06;5050333;28;20036;-76
2022/10/16 08:03:01;;;;;;;3.83;2.45;;;;;;;13.10;95.63;101284.41;5064709;28;20040;-76
2022/10/16 08:05:31;;;;;;;5.55;2.65;;;;;;;13.11;95.93;101297.09;5065789;28;20036;-77
2022/10/16 08:07:57;;;;;;;7.13;2.28;;;;;;;13.09;96.29;101293.59;5065777;28;20040;-77
2022/10/16 08:10:25;;;;;;;5.15;2.35;;;;;;;13.09;96.10;101307.25;5053996;28;20028;-77
2022/10/16 08:12:51;;;;;;;3.25;2.42;;;;;;;13.06;96.40;101302.06;5062815;28;20820;-76
2022/10/16 08:15:17;;;;;;;6.90;2.33;;;;;;;13.04;96.81;101309.47;5059736;28;20040;-77
2022/10/16 08:17:42;;;;;;;7.28;3.10;;;;;;;13.05;96.22;101310.34;5061897;28;20037;-77
2022/10/16 08:20:09;;;;;;;7.50;2.63;;;;;;;13.02;96.47;101312.31;5068255;28;20043;-77
2022/10/16 08:22:34;;;;;;;4.38;2.53;;;;;;;13.03;96.47;101327.72;5069303;28;20447;-77
2022/10/16 08:25:00;;;;;;;6.90;2.90;;;;;;;13.11;96.08;101329.88;5060593;28;20029;-77
2022/10/16 08:27:31;;;;;;;4.78;2.67;;;;;;;13.21;95.73;101330.06;5066553;28;20048;-77
2022/10/16 08:29:56;;;;;;;7.55;2.80;;;;;;;13.25;96.68;101331.59;5065576;28;20037;-75
2022/10/16 08:32:21;;;;;;;6.75;2.65;;;;;;;13.30;95.65;101334.88;5062574;28;20029;-77
2022/10/16 08:34:47;;;;;;;7.82;2.80;;;;;;;13.33;95.97;101337.34;5057093;28;20040;-77
2022/10/16 08:37:13;;;;;;;3.95;2.42;;;;;;;13.38;95.56;101339.72;5068693;28;20641;-77
2022/10/16 08:39:38;;;;;;;3.17;2.42;;;;;;;13.41;96.10;101347.69;5057988;28;20547;-78
2022/10/16 08:42:10;;;;;;;6.32;2.58;;;;;;;13.47;94.93;101352.69;5065216;28;20051;-77
2022/10/16 08:44:59;;;;;;;3.05;2.20;;;;;;;13.50;94.66;101355.19;5065146;28;20036;-77
2022/10/16 08:47:31;;;;;;;6.57;2.83;;;;;;;13.56;94.32;101362.03;5058604;28;20103;-77
2022/10/16 08:50:01;;;;;;;6.38;2.10;;;;;;;13.59;94.53;101356.34;5064478;28;20477;-76
2022/10/16 08:52:32;;;;;;;5.68;2.05;;;;;;;13.67;94.09;101356.66;5063401;28;20052;-77
2022/10/16 08:54:57;;;;;;;5.10;2.17;;;;;;;13.72;93.81;101355.28;5064316;28;20032;-77
2022/10/16 08:57:26;;;;;;;11.05;2.40;;;;;;;13.79;93.16;101355.69;5056042;28;20542;-77
2022/10/16 08:59:55;;;;;;;5.07;1.83;;;;;;;13.85;92.74;101373.47;5062799;28;20053;-77
2022/10/16 09:02:50;;;;;;;8.68;2.60;;;;;;;13.87;92.55;101366.03;5056603;28;20451;-77
2022/10/16 09:05:48;;;;;;;7.45;2.03;;;;;;;13.90;92.58;101369.41;5067212;28;20108;-78
2022/10/16 09:08:51;;;;;;;9.43;2.05;;;;;;;13.96;93.26;101373.53;5064751;28;20048;-77
2022/10/16 09:11:52;;;;;;;5.05;1.50;;;;;;;14.03;93.20;101372.03;5060937;28;20097;-77
2022/10/16 09:14:55;;;;;;;4.13;1.45;;;;;;;14.11;92.56;101371.44;5057046;28;20053;-77
2022/10/16 09:17:52;;;;;;;7.72;1.83;;;;;;;14.17;92.58;101376.41;5066967;28;20059;-77
2022/10/16 09:20:26;;;;;;;7.30;1.90;;;;;;;14.22;91.67;101380.56;5053930;28;20049;-76
2022/10/16 09:23:12;;;;;;;5.10;1.65;;;;;;;14.33;91.44;101387.91;5056790;28;20491;-78
2022/10/16 09:25:41;;;;;;;8.23;2.05;;;;;;;14.42;91.00;101394.50;5068861;28;20048;-77
2022/10/16 09:28:08;;;;;;;5.78;2.00;;;;;;;14.52;90.34;101395.53;5069592;28;20024;-76
2022/10/16 09:30:33;;;;;;;4.88;1.50;;;;;;;14.63;90.27;101394.66;5064521;28;20059;-77
2022/10/16 09:32:59;;;;;;;5.60;1.70;;;;;;;14.74;88.03;101395.56;5064628;28;20379;-76
2022/10/16 09:35:37;;;;;;;10.38;2.10;;;;;;;14.85;89.96;101397.41;5049746;28;20041;-77
2022/10/16 09:38:02;;;;;;;11.70;1.90;;;;;;;14.95;86.66;101394.78;5048884;28;20502;-77
2022/10/16 09:40:30;;;;;;;3.22;1.58;;;;;;;15.00;85.32;101401.63;5068577;28;20032;-77
2022/10/16 09:43:20;;;;;;;6.15;2.00;;;;;;;14.96;86.22;101399.25;5068843;28;20040;-76
2022/10/16 09:46:01;;;;;;;5.65;2.35;;;;;;;14.96;85.32;101400.13;5067721;28;20040;-77
2022/10/16 09:48:35;;;;;;;9.13;1.92;;;;;;;15.01;85.98;101405.25;5059621;28;20036;-77
2022/10/16 09:51:03;;;;;;;6.32;2.00;;;;;;;15.00;86.71;101406.25;5057336;28;20048;-75
2022/10/16 09:53:47;;;;;;;6.65;1.70;;;;;;;15.01;86.62;101407.97;5070328;28;20325;-78
2022/10/16 09:56:26;;;;;;;7.28;1.85;;;;;;;15.03;86.02;101406.88;5067009;28;20066;-78
2022/10/16 09:58:53;;;;;;;9.50;1.90;;;;;;;15.04;84.87;101410.47;5066776;28;20547;-77
2022/10/16 10:01:22;;;;;;;8.80;2.13;;;;;;;15.04;86.00;101416.81;5054438;28;20029;-78
2022/10/16 10:03:49;;;;;;;11.57;1.95;;;;;;;15.07;83.91;101404.75;5048483;28;20524;-77
2022/10/16 10:06:22;;;;;;;5.93;1.67;;;;;;;15.15;86.09;101407.72;5065430;28;20476;-77
2022/10/16 10:09:05;;;;;;;10.00;2.45;;;;;;;15.19;85.57;101411.06;5049717;28;20110;-77
2022/10/16 10:11:37;;;;;;;;;;;;;;;15.25;86.12;101407.84;5050658;28;20033;-77
2022/10/16 10:14:14;;;;;;;9.67;2.03;;;;;;;15.31;85.91;101410.94;5061251;28;19912;-76
2022/10/16 10:16:40;;;;;;;8.32;1.80;;;;;;;15.39;85.40;101418.53;5051210;28;20060;-76
2022/10/16 10:19:14;;;;;;;16.55;2.60;;;;;;;15.40;84.29;101413.91;5049534;28;20032;-77
2022/10/16 10:21:39;;;;;;;10.73;2.13;;;;;;;15.40;83.05;101422.13;5068180;28;20491;-76
2022/10/16 10:24:05;;;;;;;7.18;2.15;;;;;;;15.43;81.79;101424.59;5069413;28;20021;-77
2022/10/16 10:26:32;;;;;;;11.00;2.10;;;;;;;15.43;82.56;101428.22;5064047;28;20036;-76
2022/10/16 10:29:08;;;;;;;7.88;1.52;;;;;;;15.47;82.39;101434.31;5049623;28;20578;-77
2022/10/16 10:31:45;;;;;;;13.10;2.33;;;;;;;15.51;82.56;101431.19;5048122;28;20075;-76
2022/10/16 10:34:39;;;;;;;13.60;2.40;;;;;;;15.65;82.87;101435.56;5064694;28;20040;-77
2022/10/16 10:37:30;;;;;;;14.23;1.92;;;;;;;15.87;81.75;101433.75;5033794;28;20127;-77
2022/10/16 10:40:26;;;;;;;13.10;2.25;;;;;;;16.00;80.40;101434.44;5047688;28;20124;-77
2022/10/16 10:43:01;;;;;;;13.40;1.88;;;;;;;16.25;81.02;101438.66;5058425;28;20028;-78
2022/10/16 10:45:42;;;;;;;5.95;1.90;;;;;;;16.49;80.64;101442.00;5056248;28;20135;-76
2022/10/16 10:48:13;;;;;;;8.20;2.30;;;;;;;16.57;78.26;101436.72;5060984;28;20541;-77
2022/10/16 10:50:59;;;;;;;8.20;1.80;;;;;;;16.75;79.29;101431.50;5055561;28;20037;-78
2022/10/16 10:53:50;;;;;;;6.68;2.22;;;;;;;16.99;79.42;101442.16;5069427;28;20047;-78
2022/10/16 10:56:34;;;;;;;8.77;1.85;;;;;;;17.16;77.64;101439.75;5066752;28;20036;-77
2022/10/16 10:59:06;;;;;;;13.85;1.65;;;;;;;17.24;72.61;101442.69;5076159;28;20173;-78
2022/10/16 11:01:48;;;;;;;8.23;2.10;;;;;;;17.33;73.51;101442.72;5066718;28;20124;-76
2022/10/16 11:04:56;;;;;;;7.63;1.85;;;;;;;17.34;73.99;101451.84;5055327;28;20044;-77
2022/10/16 11:07:28;;;;;;;8.07;1.77;;;;;;;17.42;72.86;101453.91;5061983;28;20039;-77
2022/10/16 11:09:59;;;;;;;8.98;1.90;;;;;;;17.52;73.15;101444.63;5068591;28;20068;-77
2022/10/16 11:12:29;;;;;;;12.65;2.20;;;;;;;17.68;72.70;101460.63;5064425;28;20028;-76
2022/10/16 11:15:19;;;;;;;13.15;2.40;;;;;;;17.78;71.79;101456.03;5061826;28;20064;-77
2022/10/16 11:17:50;;;;;;;8.60;1.85;;;;;;;17.80;69.77;101448.47;5063569;28;20036;-76
2022/10/16 11:20:27;;;;;;;12.50;1.67;;;;;;;17.98;74.06;101450.53;5066193;28;20040;-77
2022/10/16 11:22:59;;;;;;;11.63;2.63;;;;;;;18.00;70.25;101449.38;5066866;28;20032;-76
2022/10/16 11:25:28;;;;;;;11.40;2.08;;;;;;;17.91;69.56;101442.00;5068826;28;20495;-76
2022/10/16 11:28:11;;;;;;;9.10;1.85;;;;;;;17.80;70.38;101450.38;5046054;28;20112;-76
2022/10/16 11:30:50;;;;;;;10.70;1.60;;;;;;;17.73;70.74;101449.19;5052452;28;20064;-77
2022/10/16 11:33:18;;;;;;;10.20;2.85;;;;;;;17.87;71.78;101451.56;5048321;28;20107;-77